Benoit, Wisconsin
Current Conditions -  °F | °C
As of 1:53 AM on Tuesday 27 Jan 2015 (Local Time) from KASX Reporting Station
Overcast Overcast  
Wind Chill: 26°   Ceiling: 2000
Heat Index: 26°   Visibility: 10mi
Dew Point: 23°   Wind: 3mph
Humidity: 88%   Direction: 320°NW
Pressure: 30.03"   Gusts: NA
Location:  46.5°N, 91.08°W
Report Text: KASX 270753Z AUTO 32003KT 10SM OVC020 M03/M05 A3003 RMK AO2 SLP182 T10331050
Loading
Personal Weather Stations






























Interactive Weather Map New forecast layout! Learn more

10-Day Weather Forecast

Advertisements
Track Severe Weather on mobile